Time;durP1;ratioP1;P1;durP2;ratioP2;P2;SDS_P1;SDS_P2;PMS_P1;PMS_P2;Temp;Humidity;BMP_temperature;BMP_pressure;BME280_temperature;BME280_humidity;BME280_pressure;Samples;Min_cycle;Max_cycle;Signal;HPM_P1;HPM_P2
2023/05/27 00:01:01;;;;;;;5.97;3.10;;;13.10;99.90;;;;;;5050402;28;20450;-72
2023/05/27 00:03:27;;;;;;;6.65;3.17;;;13.10;99.90;;;;;;5049557;28;20107;-72
2023/05/27 00:05:52;;;;;;;6.45;3.08;;;13.00;99.90;;;;;;5050693;28;20021;-72
2023/05/27 00:08:18;;;;;;;8.63;3.72;;;13.00;99.90;;;;;;5049959;28;20060;-71
2023/05/27 00:10:44;;;;;;;7.40;3.30;;;12.90;99.90;;;;;;5050383;28;20036;-70
2023/05/27 00:13:11;;;;;;;3.95;2.85;;;12.80;99.90;;;;;;5049532;28;20037;-71
2023/05/27 00:15:40;;;;;;;6.90;3.22;;;12.80;99.90;;;;;;5050080;28;20029;-71
2023/05/27 00:18:06;;;;;;;8.13;3.65;;;12.70;99.90;;;;;;5050068;28;20362;-71
2023/05/27 00:20:32;;;;;;;6.03;3.03;;;12.80;99.90;;;;;;5049548;28;20201;-71
2023/05/27 00:23:01;;;;;;;6.60;3.20;;;12.70;99.90;;;;;;5050121;28;20427;-71
2023/05/27 00:25:27;;;;;;;5.63;3.03;;;12.70;99.90;;;;;;5049459;28;20044;-72
2023/05/27 00:27:54;;;;;;;7.45;3.50;;;12.70;99.90;;;;;;5050183;28;20047;-72
2023/05/27 00:30:20;;;;;;;4.30;3.05;;;12.60;99.90;;;;;;5049346;28;20025;-70
2023/05/27 00:32:46;;;;;;;4.60;2.45;;;12.60;99.90;;;;;;5049932;28;20074;-70
2023/05/27 00:35:12;;;;;;;8.20;3.53;;;12.60;99.90;;;;;;5049497;28;20075;-72
2023/05/27 00:37:38;;;;;;;5.93;3.65;;;12.60;99.90;;;;;;5048974;28;20615;-73
2023/05/27 00:40:07;;;;;;;7.15;3.35;;;12.60;99.90;;;;;;5049695;28;20751;-73
2023/05/27 00:42:32;;;;;;;5.90;2.90;;;12.50;99.90;;;;;;5049401;28;20070;-73
2023/05/27 00:44:58;;;;;;;5.63;3.05;;;12.50;99.90;;;;;;5050395;28;20509;-73
2023/05/27 00:47:29;;;;;;;7.93;3.40;;;12.50;99.90;;;;;;5050262;28;20033;-73
2023/05/27 00:49:55;;;;;;;5.43;2.90;;;12.50;99.90;;;;;;5050217;28;20494;-73
2023/05/27 00:52:21;;;;;;;6.28;3.05;;;12.40;99.90;;;;;;5048593;28;20061;-71
2023/05/27 00:54:47;;;;;;;4.95;3.05;;;12.50;99.90;;;;;;5050177;28;20051;-73
2023/05/27 00:57:13;;;;;;;7.72;2.67;;;12.50;99.90;;;;;;5048748;28;20029;-75
2023/05/27 00:59:39;;;;;;;9.05;3.55;;;12.40;99.90;;;;;;5049394;28;20040;-71
2023/05/27 01:02:05;;;;;;;4.65;3.15;;;12.40;99.90;;;;;;5050416;28;20089;-71
2023/05/27 01:04:31;;;;;;;4.88;2.95;;;12.30;99.90;;;;;;5049419;28;20040;-71
2023/05/27 01:07:16;;;;;;;4.57;2.97;;;12.30;99.90;;;;;;5048774;28;20024;-71
2023/05/27 01:09:51;;;;;;;5.00;2.78;;;12.30;99.90;;;;;;5050210;28;20366;-71
2023/05/27 01:12:58;;;;;;;7.25;3.00;;;12.30;99.90;;;;;;5050132;28;20061;-76
2023/05/27 01:15:24;;;;;;;4.57;2.50;;;12.30;99.90;;;;;;5049494;28;20096;-71
2023/05/27 01:17:54;;;;;;;5.82;2.97;;;12.30;99.90;;;;;;5049172;28;20025;-71
2023/05/27 01:20:20;;;;;;;5.60;3.10;;;12.20;99.90;;;;;;5049462;28;20419;-71
2023/05/27 01:22:47;;;;;;;8.88;3.03;;;12.30;99.90;;;;;;5050264;28;20022;-71
2023/05/27 01:25:14;;;;;;;5.20;3.25;;;12.20;99.90;;;;;;5050017;28;20052;-71
2023/05/27 01:27:40;;;;;;;7.90;3.13;;;12.10;99.90;;;;;;5049692;28;20131;-73
2023/05/27 01:30:08;;;;;;;4.72;2.90;;;12.10;99.90;;;;;;5050071;28;20133;-72
2023/05/27 01:32:51;;;;;;;6.50;3.40;;;12.10;99.90;;;;;;5049552;28;20031;-71
2023/05/27 01:35:17;;;;;;;6.43;3.33;;;12.10;99.90;;;;;;5049522;28;20067;-73
2023/05/27 01:37:45;;;;;;;5.50;3.22;;;12.00;99.90;;;;;;5048407;28;20075;-71
2023/05/27 01:40:13;;;;;;;5.97;2.88;;;12.00;99.90;;;;;;5050004;28;20021;-71
2023/05/27 01:42:39;;;;;;;7.03;2.97;;;12.00;99.90;;;;;;5048072;28;20068;-71
2023/05/27 01:45:07;;;;;;;7.10;2.97;;;12.10;99.90;;;;;;5049897;28;20104;-71
2023/05/27 01:47:34;;;;;;;5.88;3.13;;;12.00;99.90;;;;;;5049156;28;20389;-71
2023/05/27 01:50:00;;;;;;;8.00;3.30;;;12.00;99.90;;;;;;5052388;28;20125;-71
2023/05/27 01:52:26;;;;;;;5.18;2.88;;;11.90;99.90;;;;;;5053144;28;20025;-71
2023/05/27 01:54:51;;;;;;;3.00;2.67;;;11.90;99.90;;;;;;5053261;28;20113;-71
2023/05/27 01:57:18;;;;;;;5.43;3.50;;;11.90;99.90;;;;;;5053196;28;20025;-73
2023/05/27 01:59:44;;;;;;;7.10;2.90;;;11.90;99.90;;;;;;5052917;28;20029;-72
2023/05/27 02:02:10;;;;;;;7.13;3.15;;;11.90;99.90;;;;;;5053484;28;20036;-71
2023/05/27 02:04:35;;;;;;;4.68;2.60;;;11.90;99.90;;;;;;5052596;28;20154;-71
2023/05/27 02:07:01;;;;;;;12.07;3.60;;;11.90;99.90;;;;;;5053050;28;20029;-71
2023/05/27 02:09:27;;;;;;;4.47;2.58;;;11.90;99.90;;;;;;5052677;28;20040;-71
2023/05/27 02:11:52;;;;;;;6.20;3.15;;;11.90;99.90;;;;;;5053010;28;20032;-72
2023/05/27 02:14:18;;;;;;;6.20;3.33;;;11.80;99.90;;;;;;5053049;28;20033;-73
2023/05/27 02:16:44;;;;;;;7.03;2.75;;;11.80;99.90;;;;;;5053013;28;20108;-71
2023/05/27 02:19:10;;;;;;;6.53;3.22;;;11.80;99.90;;;;;;5052871;28;20107;-71
2023/05/27 02:21:36;;;;;;;6.03;2.90;;;11.80;99.90;;;;;;5052636;28;20403;-71
2023/05/27 02:24:02;;;;;;;6.55;3.28;;;11.70;99.90;;;;;;5053073;28;20043;-71
2023/05/27 02:26:28;;;;;;;5.10;2.78;;;11.70;99.90;;;;;;5052255;28;20049;-71
2023/05/27 02:28:54;;;;;;;5.72;2.70;;;11.70;99.90;;;;;;5052899;28;20381;-71
2023/05/27 02:31:21;;;;;;;5.70;3.60;;;11.70;99.90;;;;;;5051179;28;20029;-73
2023/05/27 02:33:46;;;;;;;5.43;2.83;;;11.70;99.90;;;;;;5052639;28;20136;-71
2023/05/27 02:36:12;;;;;;;6.20;3.20;;;11.70;99.90;;;;;;5052160;28;20096;-71
2023/05/27 02:38:38;;;;;;;4.38;2.40;;;11.70;99.90;;;;;;5052127;28;20125;-71
2023/05/27 02:41:04;;;;;;;6.57;2.83;;;11.70;99.90;;;;;;5052512;28;20025;-71
2023/05/27 02:43:30;;;;;;;6.57;3.22;;;11.70;99.90;;;;;;5052064;28;20028;-71
2023/05/27 02:45:55;;;;;;;6.30;3.22;;;11.70;99.90;;;;;;5052282;28;20037;-71
2023/05/27 02:48:21;;;;;;;6.03;2.90;;;11.70;99.90;;;;;;5052276;28;20417;-73
2023/05/27 02:50:47;;;;;;;6.22;3.00;;;11.60;99.90;;;;;;5051950;28;20035;-71
2023/05/27 02:53:13;;;;;;;5.90;2.90;;;11.60;99.90;;;;;;5052368;28;20120;-71
2023/05/27 02:55:38;;;;;;;5.72;3.10;;;11.60;99.90;;;;;;5051568;28;20101;-71
2023/05/27 02:58:04;;;;;;;4.22;2.75;;;11.50;99.90;;;;;;5051904;28;20462;-71
2023/05/27 03:00:31;;;;;;;6.95;3.17;;;11.50;99.90;;;;;;5050974;28;20029;-71
2023/05/27 03:02:57;;;;;;;4.82;2.97;;;11.40;99.90;;;;;;5052249;28;20108;-71
2023/05/27 03:05:23;;;;;;;3.80;2.80;;;11.40;99.90;;;;;;5051904;28;20104;-73
2023/05/27 03:07:48;;;;;;;6.25;2.60;;;11.40;99.90;;;;;;5051577;28;20130;-71
2023/05/27 03:10:14;;;;;;;7.68;2.92;;;11.30;99.90;;;;;;5052139;28;20060;-71
2023/05/27 03:12:40;;;;;;;5.07;3.03;;;11.40;99.90;;;;;;5051323;28;20185;-72
2023/05/27 03:15:06;;;;;;;4.13;2.60;;;11.40;99.90;;;;;;5052123;28;20021;-70
2023/05/27 03:17:36;;;;;;;8.98;3.17;;;11.30;99.90;;;;;;5051354;28;20402;-71
2023/05/27 03:20:01;;;;;;;6.22;2.85;;;11.30;99.90;;;;;;5052008;28;20025;-71
2023/05/27 03:22:27;;;;;;;5.05;2.55;;;11.30;99.90;;;;;;5051017;28;20032;-71
2023/05/27 03:24:54;;;;;;;5.18;2.80;;;11.30;99.90;;;;;;5051777;28;20067;-71
2023/05/27 03:27:20;;;;;;;6.88;3.15;;;11.40;99.90;;;;;;5051621;28;20435;-71
2023/05/27 03:29:46;;;;;;;7.30;2.70;;;11.40;99.90;;;;;;5051040;28;20112;-71
2023/05/27 03:32:12;;;;;;;5.10;3.17;;;11.40;99.90;;;;;;5051488;28;20025;-71
2023/05/27 03:34:38;;;;;;;7.18;2.90;;;11.30;99.90;;;;;;5050865;28;20113;-72
2023/05/27 03:37:04;;;;;;;6.43;2.97;;;11.30;99.90;;;;;;5051268;28;20033;-71
2023/05/27 03:39:29;;;;;;;4.05;2.83;;;11.30;99.90;;;;;;5051005;28;20025;-72
2023/05/27 03:41:55;;;;;;;4.28;2.63;;;11.30;99.90;;;;;;5051268;28;20235;-71
2023/05/27 03:44:21;;;;;;;5.80;2.72;;;11.20;99.90;;;;;;5050081;28;20082;-71
2023/05/27 03:46:47;;;;;;;6.60;3.33;;;11.30;99.90;;;;;;5050660;28;20468;-72
2023/05/27 03:49:12;;;;;;;7.18;2.90;;;11.30;99.90;;;;;;5051073;28;20027;-72
2023/05/27 03:51:38;;;;;;;6.10;3.00;;;11.30;99.90;;;;;;5050327;28;20033;-72
2023/05/27 03:54:04;;;;;;;4.43;2.83;;;11.20;99.90;;;;;;5051344;28;20082;-71
2023/05/27 03:56:30;;;;;;;6.97;3.63;;;11.20;99.90;;;;;;5050546;28;20048;-72
2023/05/27 03:58:56;;;;;;;5.72;3.47;;;11.10;99.90;;;;;;5050876;28;20090;-72
2023/05/27 04:01:22;;;;;;;5.53;2.90;;;11.00;99.90;;;;;;5049715;28;20029;-71
2023/05/27 04:03:48;;;;;;;4.32;2.58;;;11.00;99.90;;;;;;5050691;28;20029;-71
2023/05/27 04:06:15;;;;;;;4.93;2.70;;;11.00;99.90;;;;;;5051045;28;20057;-71
2023/05/27 04:08:41;;;;;;;5.63;3.13;;;11.00;99.90;;;;;;5050094;28;20093;-71
2023/05/27 04:11:14;;;;;;;4.57;3.03;;;11.00;99.90;;;;;;5050813;28;20053;-71
2023/05/27 04:13:40;;;;;;;4.85;3.05;;;11.00;99.90;;;;;;5049887;28;20405;-72
2023/05/27 04:16:07;;;;;;;5.50;2.90;;;11.00;99.90;;;;;;5051394;28;20056;-71
2023/05/27 04:18:33;;;;;;;5.75;3.10;;;11.10;99.90;;;;;;5050147;28;20025;-72
2023/05/27 04:20:59;;;;;;;4.30;2.80;;;11.20;99.90;;;;;;5050504;28;20112;-72
2023/05/27 04:23:25;;;;;;;5.30;2.92;;;11.20;99.90;;;;;;5050711;28;20032;-72
2023/05/27 04:25:52;;;;;;;6.40;3.50;;;11.20;99.90;;;;;;5049930;28;20049;-70
2023/05/27 04:28:18;;;;;;;3.67;3.03;;;11.10;99.90;;;;;;5050551;28;20056;-71
2023/05/27 04:30:45;;;;;;;5.63;3.50;;;11.00;99.90;;;;;;5050261;28;20039;-71
2023/05/27 04:33:13;;;;;;;4.82;2.90;;;10.90;99.90;;;;;;5050366;28;20059;-71
2023/05/27 04:35:43;;;;;;;4.85;2.70;;;10.90;99.90;;;;;;5049796;28;20426;-71
2023/05/27 04:38:10;;;;;;;3.60;2.65;;;10.80;99.90;;;;;;5050147;28;20053;-71
2023/05/27 04:40:36;;;;;;;4.18;2.80;;;10.80;99.90;;;;;;5049803;28;20483;-71
2023/05/27 04:43:02;;;;;;;4.88;3.03;;;10.80;99.90;;;;;;5050526;28;20132;-71
2023/05/27 04:45:29;;;;;;;4.75;2.58;;;10.70;99.90;;;;;;5050257;28;20167;-72
2023/05/27 04:47:55;;;;;;;8.23;3.60;;;10.60;99.90;;;;;;5050148;28;20029;-71
2023/05/27 04:50:23;;;;;;;4.70;2.95;;;10.60;99.90;;;;;;5048766;28;20065;-71
2023/05/27 04:52:49;;;;;;;5.97;3.63;;;10.60;99.90;;;;;;5049573;28;20041;-71
2023/05/27 04:55:14;;;;;;;5.20;3.13;;;10.70;99.90;;;;;;5050263;28;20033;-71
2023/05/27 04:57:40;;;;;;;5.15;3.10;;;10.70;99.90;;;;;;5049625;28;20040;-71
2023/05/27 05:02:38;;;;;;;3.97;3.10;;;10.90;99.90;;;;;;5049540;28;20442;-71
2023/05/27 05:05:06;;;;;;;5.45;2.67;;;11.10;99.90;;;;;;5050471;28;20040;-71
2023/05/27 05:07:33;;;;;;;5.30;3.13;;;11.30;99.90;;;;;;5049880;28;20489;-72
2023/05/27 05:09:59;;;;;;;6.15;2.92;;;11.60;99.90;;;;;;5050380;28;20120;-71
2023/05/27 05:12:28;;;;;;;3.80;2.70;;;11.70;99.90;;;;;;5050573;28;20033;-73
2023/05/27 05:14:54;;;;;;;4.75;2.55;;;11.70;99.90;;;;;;5049543;28;20029;-72
2023/05/27 05:17:23;;;;;;;3.67;2.53;;;11.90;99.90;;;;;;5050480;28;20438;-72
2023/05/27 05:19:49;;;;;;;3.97;2.83;;;12.00;99.90;;;;;;5050006;28;20036;-72
2023/05/27 05:22:18;;;;;;;6.70;2.90;;;12.20;99.90;;;;;;5049912;28;20100;-71
2023/05/27 05:24:47;;;;;;;4.15;3.15;;;12.30;99.90;;;;;;5051292;28;20044;-71
2023/05/27 05:27:13;;;;;;;4.25;2.78;;;12.40;99.90;;;;;;5054176;28;20029;-72
2023/05/27 05:29:38;;;;;;;5.30;3.05;;;12.50;99.90;;;;;;5053088;28;20474;-72
2023/05/27 05:32:05;;;;;;;3.80;2.55;;;12.70;99.90;;;;;;5053930;28;20031;-72
2023/05/27 05:34:30;;;;;;;3.67;2.65;;;12.80;99.90;;;;;;5053497;28;20044;-72
2023/05/27 05:36:56;;;;;;;3.90;2.53;;;12.90;99.90;;;;;;5053284;28;20021;-71
2023/05/27 05:39:22;;;;;;;5.38;2.83;;;13.00;99.90;;;;;;5053548;28;20397;-72
2023/05/27 05:41:48;;;;;;;4.50;3.10;;;13.10;99.90;;;;;;5053157;28;20025;-72
2023/05/27 05:44:15;;;;;;;4.03;2.42;;;13.30;99.90;;;;;;5053719;28;20116;-72
2023/05/27 05:46:40;;;;;;;3.80;2.60;;;13.40;99.90;;;;;;5052978;28;20170;-73
2023/05/27 05:49:06;;;;;;;4.28;2.80;;;13.50;99.90;;;;;;5051819;28;20029;-72
2023/05/27 05:51:32;;;;;;;4.45;3.00;;;13.60;99.90;;;;;;5053680;28;20147;-74
2023/05/27 05:53:58;;;;;;;6.95;2.95;;;13.70;99.90;;;;;;5052877;28;20036;-72
2023/05/27 05:56:25;;;;;;;6.18;3.00;;;13.80;99.90;;;;;;5053371;28;20385;-72
2023/05/27 05:58:51;;;;;;;4.95;2.90;;;13.90;99.90;;;;;;5052858;28;20127;-72
2023/05/27 06:01:17;;;;;;;6.07;2.97;;;14.00;99.90;;;;;;5052932;28;20029;-72
2023/05/27 06:03:43;;;;;;;5.15;2.80;;;14.10;99.90;;;;;;5052802;28;20033;-71
2023/05/27 06:06:09;;;;;;;4.45;3.13;;;14.20;99.90;;;;;;5051723;28;20072;-71
2023/05/27 06:08:35;;;;;;;6.63;3.08;;;14.40;99.90;;;;;;5052548;28;20064;-72
2023/05/27 06:11:01;;;;;;;3.95;2.90;;;14.50;99.90;;;;;;5052640;28;20444;-71
2023/05/27 06:13:27;;;;;;;9.73;3.83;;;14.60;99.90;;;;;;5052834;28;20069;-71
2023/05/27 06:15:53;;;;;;;5.20;3.35;;;14.80;99.90;;;;;;5051405;28;20025;-71
2023/05/27 06:18:18;;;;;;;6.60;3.38;;;14.90;99.90;;;;;;5053088;28;20060;-71
2023/05/27 06:20:44;;;;;;;5.25;3.10;;;15.00;99.90;;;;;;5052501;28;20027;-71
2023/05/27 06:23:10;;;;;;;5.95;3.10;;;15.20;99.90;;;;;;5053071;28;20103;-71
2023/05/27 06:25:35;;;;;;;6.35;3.10;;;15.20;99.90;;;;;;5052887;28;20106;-73
2023/05/27 06:28:01;;;;;;;5.38;2.60;;;15.40;99.90;;;;;;5052574;28;20461;-71
2023/05/27 06:30:27;;;;;;;6.03;2.97;;;15.50;99.90;;;;;;5052927;28;20024;-71
2023/05/27 06:32:53;;;;;;;5.88;2.78;;;15.70;99.90;;;;;;5052238;28;20029;-71
2023/05/27 06:35:19;;;;;;;5.70;2.20;;;15.80;99.90;;;;;;5051521;28;20075;-72
2023/05/27 06:37:44;;;;;;;5.07;2.40;;;16.00;99.90;;;;;;5052092;28;20388;-72
2023/05/27 06:40:11;;;;;;;4.35;2.53;;;16.10;99.90;;;;;;5052375;28;20427;-71
2023/05/27 06:42:37;;;;;;;4.47;2.30;;;16.30;99.90;;;;;;5052489;28;20029;-74
2023/05/27 06:45:03;;;;;;;8.07;2.35;;;16.40;99.90;;;;;;5052450;28;20036;-71
2023/05/27 06:47:29;;;;;;;4.47;2.13;;;16.40;99.90;;;;;;5052681;28;20037;-71
2023/05/27 06:49:55;;;;;;;4.40;2.35;;;16.40;99.90;;;;;;5051704;28;20033;-70
2023/05/27 06:52:21;;;;;;;4.45;2.20;;;16.50;99.90;;;;;;5052365;28;20353;-71
2023/05/27 06:54:47;;;;;;;5.93;2.22;;;16.50;99.90;;;;;;5051691;28;20127;-72
2023/05/27 06:57:13;;;;;;;5.80;2.70;;;16.60;99.90;;;;;;5052139;28;20025;-72
2023/05/27 06:59:39;;;;;;;3.67;2.05;;;16.70;99.90;;;;;;5051292;28;20116;-74
2023/05/27 07:02:06;;;;;;;6.97;2.97;;;16.90;99.90;;;;;;5052576;28;20488;-71
2023/05/27 07:04:32;;;;;;;5.05;2.20;;;16.90;99.90;;;;;;5052095;28;20040;-72
2023/05/27 07:06:58;;;;;;;4.45;2.40;;;17.00;99.90;;;;;;5051148;28;20581;-72
2023/05/27 07:09:23;;;;;;;4.07;2.63;;;17.00;99.90;;;;;;5051714;28;20043;-72
2023/05/27 07:11:50;;;;;;;4.68;2.30;;;17.20;99.90;;;;;;5051257;28;20025;-71
2023/05/27 07:14:15;;;;;;;7.22;2.75;;;17.20;99.90;;;;;;5050359;28;20117;-71
2023/05/27 07:16:41;;;;;;;5.43;2.40;;;17.40;99.90;;;;;;5051671;28;20481;-72
2023/05/27 07:19:07;;;;;;;5.68;2.47;;;17.50;99.90;;;;;;5051759;28;20094;-71
2023/05/27 07:21:33;;;;;;;3.67;2.28;;;17.50;99.90;;;;;;5051765;28;20112;-72
2023/05/27 07:24:03;;;;;;;6.05;2.10;;;17.60;99.90;;;;;;5051075;28;20646;-73
2023/05/27 07:26:30;;;;;;;5.05;2.58;;;17.60;99.90;;;;;;5050109;28;20120;-73
2023/05/27 07:29:00;;;;;;;6.57;2.75;;;17.60;99.90;;;;;;5050406;28;20052;-73
2023/05/27 07:31:27;;;;;;;5.15;2.28;;;17.60;99.90;;;;;;5051211;28;20021;-73
2023/05/27 07:33:53;;;;;;;5.05;2.35;;;17.70;99.90;;;;;;5050495;28;20111;-73
2023/05/27 07:36:19;;;;;;;5.32;2.67;;;17.70;99.90;;;;;;5051381;28;20032;-71
2023/05/27 07:38:45;;;;;;;3.72;2.35;;;17.70;99.90;;;;;;5050188;28;20029;-72
2023/05/27 07:41:12;;;;;;;4.70;2.35;;;17.80;99.90;;;;;;5050891;28;20025;-71
2023/05/27 07:43:37;;;;;;;3.17;1.80;;;17.90;99.90;;;;;;5051044;28;20086;-72
2023/05/27 07:46:03;;;;;;;3.38;1.40;;;18.10;99.90;;;;;;5050207;28;20033;-71
2023/05/27 07:48:29;;;;;;;7.88;2.72;;;18.10;99.90;;;;;;5050900;28;20029;-72
2023/05/27 07:50:55;;;;;;;3.70;2.25;;;18.20;99.90;;;;;;5050380;28;20021;-72
2023/05/27 07:53:21;;;;;;;4.15;1.77;;;18.20;99.90;;;;;;5050846;28;20050;-72
2023/05/27 07:55:47;;;;;;;3.67;1.95;;;18.30;99.90;;;;;;5050096;28;20033;-72
2023/05/27 07:58:13;;;;;;;2.83;1.30;;;18.40;99.90;;;;;;5050391;28;20040;-72
2023/05/27 08:00:39;;;;;;;6.20;2.28;;;18.40;99.90;;;;;;5050650;28;20116;-71
2023/05/27 08:03:05;;;;;;;3.35;1.65;;;18.40;99.90;;;;;;5048469;28;20077;-72
2023/05/27 08:05:32;;;;;;;6.40;2.03;;;18.50;99.90;;;;;;5050398;28;20419;-72
2023/05/27 08:07:58;;;;;;;5.63;2.00;;;18.50;99.90;;;;;;5049955;28;20108;-72
2023/05/27 08:10:23;;;;;;;3.75;1.75;;;18.70;99.90;;;;;;5050476;28;20108;-72
2023/05/27 08:12:50;;;;;;;1.92;1.67;;;18.50;99.90;;;;;;5049624;28;20489;-72
2023/05/27 08:15:16;;;;;;;3.55;1.90;;;18.50;99.90;;;;;;5049881;28;20427;-72
2023/05/27 08:17:43;;;;;;;3.20;1.60;;;18.70;99.90;;;;;;5049505;28;20036;-71
2023/05/27 08:20:09;;;;;;;3.45;1.55;;;18.70;99.90;;;;;;5050204;28;20112;-73
2023/05/27 08:22:35;;;;;;;2.05;1.10;;;18.80;99.90;;;;;;5050223;28;20029;-72
2023/05/27 08:25:01;;;;;;;2.50;1.65;;;18.70;99.90;;;;;;5049468;28;20154;-72
2023/05/27 08:27:50;;;;;;;4.68;2.15;;;18.80;99.90;;;;;;5050399;28;20029;-72
2023/05/27 08:30:17;;;;;;;2.33;1.45;;;19.00;99.90;;;;;;5050318;28;20041;-72
2023/05/27 08:32:43;;;;;;;2.80;1.40;;;18.90;99.90;;;;;;5050153;28;20135;-73
2023/05/27 08:35:10;;;;;;;2.67;1.85;;;19.00;99.90;;;;;;5049608;28;20037;-73
2023/05/27 08:37:36;;;;;;;6.45;2.03;;;19.10;99.90;;;;;;5049514;28;20086;-73
2023/05/27 08:40:05;;;;;;;4.85;1.40;;;19.20;99.90;;;;;;5049537;28;20021;-73
2023/05/27 08:42:31;;;;;;;2.97;1.30;;;19.30;99.90;;;;;;5049756;28;20029;-71
2023/05/27 08:44:57;;;;;;;1.23;1.13;;;19.50;99.90;;;;;;5049343;28;20040;-72
2023/05/27 08:47:23;;;;;;;3.78;1.25;;;19.60;99.90;;;;;;5048260;28;20469;-73
2023/05/27 08:49:49;;;;;;;4.78;1.52;;;19.60;99.90;;;;;;5049417;28;20111;-72
2023/05/27 08:52:19;;;;;;;6.15;1.30;;;19.60;99.90;;;;;;5049987;28;20108;-72
2023/05/27 08:54:47;;;;;;;2.75;1.40;;;19.70;99.90;;;;;;5050278;28;20036;-74
2023/05/27 08:57:15;;;;;;;1.92;0.80;;;19.70;99.90;;;;;;5048814;28;20024;-71
2023/05/27 08:59:41;;;;;;;3.28;1.10;;;19.70;99.90;;;;;;5049221;28;20351;-71
2023/05/27 09:02:12;;;;;;;3.47;1.30;;;19.70;99.90;;;;;;5047864;28;20174;-72
2023/05/27 09:04:40;;;;;;;1.60;1.27;;;19.80;99.90;;;;;;5049310;28;20044;-72
2023/05/27 09:07:07;;;;;;;2.05;1.25;;;19.90;99.90;;;;;;5048558;28;20021;-72
2023/05/27 09:09:33;;;;;;;2.05;1.67;;;19.80;99.90;;;;;;5049212;28;20051;-72
2023/05/27 09:12:03;;;;;;;5.20;1.70;;;19.70;99.90;;;;;;5048881;28;20029;-72
2023/05/27 09:14:29;;;;;;;2.70;1.85;;;19.70;99.90;;;;;;5049470;28;20044;-72
2023/05/27 09:16:56;;;;;;;3.47;1.55;;;19.90;99.90;;;;;;5049111;28;20029;-72
2023/05/27 09:19:22;;;;;;;2.45;1.33;;;19.90;99.90;;;;;;5049578;28;20025;-72
2023/05/27 09:21:52;;;;;;;3.20;1.40;;;19.90;99.90;;;;;;5049280;28;20439;-74
2023/05/27 09:24:18;;;;;;;3.25;1.60;;;19.80;99.90;;;;;;5049620;28;20103;-71
2023/05/27 09:26:44;;;;;;;3.88;1.20;;;19.80;99.90;;;;;;5049430;28;20080;-72
2023/05/27 09:29:10;;;;;;;2.80;1.55;;;19.90;99.90;;;;;;5049528;28;20033;-72
2023/05/27 09:31:40;;;;;;;2.65;1.50;;;20.00;99.90;;;;;;5048700;28;20033;-71
2023/05/27 09:34:16;;;;;;;4.57;1.90;;;20.20;99.90;;;;;;5049581;28;20102;-71
2023/05/27 09:36:46;;;;;;;3.50;1.50;;;20.20;99.90;;;;;;5050113;28;20365;-71
2023/05/27 09:39:14;;;;;;;4.28;1.70;;;20.20;99.90;;;;;;5049355;28;20025;-72
2023/05/27 09:41:40;;;;;;;1.75;1.13;;;20.30;99.90;;;;;;5049827;28;20021;-71
2023/05/27 09:44:07;;;;;;;2.90;1.52;;;20.30;99.90;;;;;;5047711;28;20033;-72
2023/05/27 09:46:34;;;;;;;1.58;1.40;;;20.40;99.90;;;;;;5049531;28;20037;-72
2023/05/27 09:49:02;;;;;;;4.93;1.60;;;20.40;99.90;;;;;;5048812;28;20468;-72
2023/05/27 09:51:28;;;;;;;2.40;1.35;;;20.40;99.90;;;;;;5049756;28;20048;-72
2023/05/27 09:53:56;;;;;;;2.97;1.60;;;20.30;99.90;;;;;;5049012;28;20439;-73
2023/05/27 09:56:26;;;;;;;4.72;1.27;;;20.50;99.90;;;;;;5049538;28;20465;-71
2023/05/27 09:58:55;;;;;;;4.78;1.30;;;20.60;99.90;;;;;;5048792;28;20029;-74
2023/05/27 10:01:28;;;;;;;2.15;1.40;;;20.70;99.90;;;;;;5049212;28;20100;-72
2023/05/27 10:03:57;;;;;;;2.72;1.35;;;20.80;99.90;;;;;;5048439;28;20087;-72
2023/05/27 10:06:26;;;;;;;4.72;1.58;;;21.00;99.90;;;;;;5049085;28;20036;-71
2023/05/27 10:08:58;;;;;;;4.50;1.45;;;20.70;99.90;;;;;;5046973;28;20025;-75
2023/05/27 10:11:37;;;;;;;6.10;1.58;;;20.60;99.90;;;;;;5052092;28;20401;-71
2023/05/27 10:14:03;;;;;;;2.40;1.52;;;20.80;99.90;;;;;;5052058;28;20047;-72
2023/05/27 10:16:29;;;;;;;3.75;1.75;;;20.70;99.90;;;;;;5053404;28;20060;-70
2023/05/27 10:18:59;;;;;;;1.63;1.23;;;20.80;99.90;;;;;;5052598;28;20060;-70
2023/05/27 10:21:30;;;;;;;2.45;1.42;;;20.90;99.90;;;;;;5053221;28;20491;-73
2023/05/27 10:24:01;;;;;;;2.65;1.52;;;21.10;99.90;;;;;;5053534;28;20037;-73
2023/05/27 10:26:33;;;;;;;2.70;1.58;;;21.30;99.90;;;;;;5053592;28;20041;-72
2023/05/27 10:29:16;;;;;;;;;;;21.50;99.90;;;;;;5053568;28;20025;-70
2023/05/27 10:31:50;;;;;;;4.60;1.67;;;21.60;99.90;;;;;;5053821;28;19944;-70
2023/05/27 10:34:16;;;;;;;1.95;1.60;;;21.70;99.90;;;;;;5053322;28;20443;-72
2023/05/27 10:36:44;;;;;;;3.45;1.55;;;22.00;99.90;;;;;;5053784;28;20108;-72
2023/05/27 10:39:15;;;;;;;4.05;1.50;;;22.00;99.90;;;;;;5053148;28;20060;-73
2023/05/27 10:41:50;;;;;;;5.88;1.88;;;21.80;99.90;;;;;;5053631;28;20097;-70
2023/05/27 10:44:26;;;;;;;2.58;1.70;;;21.10;99.90;;;;;;5052478;28;20040;-70
2023/05/27 10:47:09;;;;;;;3.83;1.70;;;20.70;99.90;;;;;;5053103;28;20497;-73
2023/05/27 10:49:37;;;;;;;5.97;1.70;;;20.40;99.90;;;;;;5053492;28;20029;-70
2023/05/27 10:52:15;;;;;;;3.28;1.65;;;20.20;99.90;;;;;;5052824;28;20044;-72
2023/05/27 10:54:43;;;;;;;3.53;1.77;;;20.10;99.90;;;;;;5053357;28;20067;-72
2023/05/27 10:57:09;;;;;;;3.03;1.95;;;19.90;99.90;;;;;;5051432;28;20029;-73
2023/05/27 11:00:00;;;;;;;5.68;1.60;;;19.80;99.90;;;;;;5053233;28;20036;-72
2023/05/27 11:02:34;;;;;;;3.97;1.50;;;19.70;99.90;;;;;;5052862;28;20393;-73
2023/05/27 11:05:00;;;;;;;3.15;1.48;;;19.50;99.90;;;;;;5052669;28;20585;-72
2023/05/27 11:07:26;;;;;;;3.58;1.60;;;19.50;99.90;;;;;;5052990;28;20107;-73
2023/05/27 11:09:55;;;;;;;4.35;1.77;;;19.60;99.90;;;;;;5053087;28;20048;-72
2023/05/27 11:12:23;;;;;;;4.13;2.00;;;19.60;99.90;;;;;;5052487;28;20100;-72
2023/05/27 11:14:51;;;;;;;3.05;1.88;;;19.70;99.90;;;;;;5051430;28;20128;-72
2023/05/27 11:17:18;;;;;;;5.97;2.28;;;19.80;99.90;;;;;;5052508;28;20021;-73
2023/05/27 11:19:47;;;;;;;5.53;1.90;;;19.60;99.90;;;;;;5052817;28;20029;-72
2023/05/27 11:22:14;;;;;;;4.03;1.98;;;19.70;99.90;;;;;;5051461;28;20021;-72
2023/05/27 11:24:40;;;;;;;4.65;2.10;;;19.70;99.90;;;;;;5052662;28;20025;-73
2023/05/27 11:27:14;;;;;;;4.53;2.10;;;19.80;99.90;;;;;;5050670;28;20183;-72
2023/05/27 11:29:52;;;;;;;4.43;2.10;;;19.80;99.90;;;;;;5052485;28;20025;-72
2023/05/27 11:32:18;;;;;;;4.35;2.25;;;19.80;99.90;;;;;;5052164;28;20055;-72
2023/05/27 11:34:45;;;;;;;4.55;2.28;;;19.90;99.90;;;;;;5052366;28;20362;-72
2023/05/27 11:37:12;;;;;;;2.03;1.83;;;19.90;99.90;;;;;;5051733;28;20060;-72
2023/05/27 11:39:37;;;;;;;5.10;2.22;;;20.10;99.90;;;;;;5052228;28;20103;-73
2023/05/27 11:42:08;;;;;;;4.38;2.40;;;20.20;99.90;;;;;;5051880;28;20413;-73
2023/05/27 11:44:34;;;;;;;3.88;2.03;;;20.40;99.90;;;;;;5052099;28;20025;-73
2023/05/27 11:47:01;;;;;;;6.03;2.50;;;20.60;99.90;;;;;;5052343;28;20083;-71
2023/05/27 11:49:27;;;;;;;4.50;2.60;;;20.30;99.90;;;;;;5051855;28;20049;-71
2023/05/27 11:51:56;;;;;;;5.25;2.47;;;20.30;99.90;;;;;;5052039;28;20079;-71
2023/05/27 11:54:27;;;;;;;4.90;2.20;;;20.20;99.90;;;;;;5051096;28;20478;-71
2023/05/27 11:56:54;;;;;;;6.05;2.10;;;20.30;99.90;;;;;;5051995;28;20029;-70
2023/05/27 11:59:22;;;;;;;4.60;1.95;;;20.50;99.90;;;;;;5051076;28;20025;-71
2023/05/27 12:01:49;;;;;;;7.15;2.47;;;20.60;99.90;;;;;;5051977;28;20037;-71
2023/05/27 12:04:15;;;;;;;3.72;1.92;;;20.50;99.90;;;;;;5049705;28;20479;-71
2023/05/27 12:06:42;;;;;;;4.38;2.30;;;20.50;99.90;;;;;;5051629;28;20063;-71
2023/05/27 12:09:09;;;;;;;8.02;2.42;;;20.40;99.90;;;;;;5049850;28;20389;-71
2023/05/27 12:11:35;;;;;;;4.88;2.10;;;20.50;99.90;;;;;;5051620;28;20025;-71
2023/05/27 12:14:00;;;;;;;4.45;2.28;;;20.50;99.90;;;;;;5050866;28;20060;-72
2023/05/27 12:16:27;;;;;;;3.72;2.20;;;20.10;99.90;;;;;;5051408;28;20411;-72
2023/05/27 12:18:53;;;;;;;3.05;2.00;;;20.10;99.90;;;;;;5051198;28;20021;-73
2023/05/27 12:21:22;;;;;;;4.63;2.22;;;19.90;99.90;;;;;;5050926;28;20111;-73
2023/05/27 12:23:48;;;;;;;5.22;2.30;;;19.80;99.90;;;;;;5051228;28;20032;-70
2023/05/27 12:26:15;;;;;;;5.80;2.78;;;19.70;99.90;;;;;;5050487;28;20056;-70
2023/05/27 12:28:41;;;;;;;4.15;2.25;;;19.50;99.90;;;;;;5051367;28;20029;-71
2023/05/27 12:31:07;;;;;;;5.85;2.30;;;19.30;99.90;;;;;;5049621;28;20366;-69
2023/05/27 12:33:33;;;;;;;4.22;2.40;;;19.50;99.90;;;;;;5050333;28;20037;-71
2023/05/27 12:36:00;;;;;;;5.88;2.85;;;19.60;99.90;;;;;;5051204;28;20024;-73
2023/05/27 12:38:26;;;;;;;6.00;2.45;;;19.60;99.90;;;;;;5049665;28;20351;-70
2023/05/27 12:40:52;;;;;;;8.02;2.50;;;19.60;99.90;;;;;;5051311;28;20075;-70
2023/05/27 12:43:18;;;;;;;3.08;2.53;;;19.80;99.90;;;;;;5050428;28;20371;-71
2023/05/27 12:45:45;;;;;;;3.55;2.60;;;19.90;99.90;;;;;;5050611;28;20130;-71
2023/05/27 12:48:11;;;;;;;4.45;2.72;;;20.00;99.90;;;;;;5050682;28;20350;-71
2023/05/27 12:50:38;;;;;;;3.35;2.55;;;20.10;99.90;;;;;;5050238;28;20021;-71